createdAt,value
2017-06-25T00:01:19.712Z,2.96
2017-06-25T00:03:47.984Z,2.74
2017-06-25T00:06:16.313Z,2.56
2017-06-25T00:08:44.592Z,2.94
2017-06-25T00:11:12.899Z,2.50
2017-06-25T00:13:41.173Z,2.76
2017-06-25T00:16:09.484Z,2.50
2017-06-25T00:18:37.807Z,2.70
2017-06-25T00:21:06.105Z,3.14
2017-06-25T00:23:34.380Z,3.36
2017-06-25T00:26:02.656Z,3.10
2017-06-25T00:28:30.952Z,2.92
2017-06-25T00:30:58.458Z,3.06
2017-06-25T00:33:26.765Z,3.44
2017-06-25T00:35:55.120Z,2.72
2017-06-25T00:38:23.423Z,3.16
2017-06-25T00:40:51.697Z,3.24
2017-06-25T00:43:19.997Z,3.62
2017-06-25T00:45:48.289Z,3.20
2017-06-25T00:48:16.597Z,3.36
2017-06-25T00:50:44.878Z,3.70
2017-06-25T00:53:18.909Z,3.50
2017-06-25T00:55:46.462Z,3.18
2017-06-25T00:58:14.753Z,3.40
2017-06-25T01:00:43.086Z,2.90
2017-06-25T01:03:11.363Z,3.08
2017-06-25T01:05:39.653Z,2.74
2017-06-25T01:08:07.965Z,3.20
2017-06-25T01:10:35.480Z,2.82
2017-06-25T01:13:03.776Z,3.08
2017-06-25T01:15:32.068Z,3.18
2017-06-25T01:18:00.348Z,3.00
2017-06-25T01:20:28.661Z,3.38
2017-06-25T01:22:56.937Z,2.98
2017-06-25T01:25:25.230Z,3.42
2017-06-25T01:27:53.503Z,2.78
2017-06-25T01:30:21.816Z,3.04
2017-06-25T01:32:50.097Z,3.12
2017-06-25T01:35:18.409Z,3.60
2017-06-25T01:37:47.027Z,3.38
2017-06-25T01:40:15.296Z,3.50
2017-06-25T01:42:43.574Z,2.90
2017-06-25T01:45:11.879Z,3.48
2017-06-25T01:47:40.142Z,3.58
2017-06-25T01:50:08.403Z,3.54
2017-06-25T01:52:36.699Z,3.28
2017-06-25T01:55:04.988Z,3.50
2017-06-25T01:57:33.258Z,3.70
2017-06-25T02:00:01.576Z,4.04
2017-06-25T02:02:29.846Z,4.00
2017-06-25T02:04:58.125Z,3.80
2017-06-25T02:07:26.445Z,3.80
2017-06-25T02:09:54.707Z,3.18
2017-06-25T02:12:22.978Z,3.20
2017-06-25T02:14:51.288Z,3.30
2017-06-25T02:17:19.550Z,3.66
2017-06-25T02:19:47.865Z,2.98
2017-06-25T02:22:16.133Z,3.12
2017-06-25T02:24:44.410Z,3.44
2017-06-25T02:27:12.712Z,3.18
2017-06-25T02:29:40.978Z,3.46
2017-06-25T02:32:10.217Z,3.28
2017-06-25T02:34:38.481Z,3.62
2017-06-25T02:37:06.767Z,3.52
2017-06-25T02:39:35.083Z,3.34
2017-06-25T02:42:03.345Z,3.38
2017-06-25T02:44:31.605Z,3.12
2017-06-25T02:46:59.888Z,3.42
2017-06-25T02:49:28.156Z,3.32
2017-06-25T02:51:56.454Z,3.38
2017-06-25T02:54:24.718Z,2.86
2017-06-25T02:56:52.975Z,3.58
2017-06-25T02:59:21.268Z,3.46
2017-06-25T03:01:49.541Z,3.96
2017-06-25T03:04:17.805Z,3.14
2017-06-25T03:06:46.096Z,3.20
2017-06-25T03:09:22.107Z,3.74
2017-06-25T03:11:50.423Z,3.48
2017-06-25T03:14:18.690Z,3.40
2017-06-25T03:16:46.960Z,4.12
2017-06-25T03:19:15.282Z,3.88
2017-06-25T03:21:43.552Z,4.60
2017-06-25T03:24:11.811Z,4.18
2017-06-25T03:26:40.140Z,4.34
2017-06-25T03:29:08.419Z,3.90
2017-06-25T03:31:36.679Z,4.68
2017-06-25T03:34:04.996Z,3.62
2017-06-25T03:36:33.261Z,3.54
2017-06-25T03:39:02.448Z,3.76
2017-06-25T03:41:30.752Z,3.74
2017-06-25T03:43:59.020Z,3.98
2017-06-25T03:46:27.283Z,3.92
2017-06-25T03:48:55.597Z,4.94
2017-06-25T03:51:23.877Z,4.28
2017-06-25T03:53:52.134Z,4.22
2017-06-25T03:56:20.443Z,5.08
2017-06-25T03:58:48.707Z,5.06
2017-06-25T04:01:16.968Z,5.54
2017-06-25T04:03:45.275Z,4.92
2017-06-25T04:06:13.539Z,5.58
2017-06-25T04:08:41.804Z,5.28
2017-06-25T04:11:10.100Z,5.08
2017-06-25T04:13:38.366Z,5.12
2017-06-25T04:16:06.626Z,5.16
2017-06-25T04:18:34.938Z,4.98
2017-06-25T04:21:02.444Z,5.92
2017-06-25T04:23:30.816Z,6.52
2017-06-25T04:25:59.441Z,5.42
2017-06-25T04:28:28.682Z,6.12
2017-06-25T04:30:56.949Z,5.26
2017-06-25T04:33:25.275Z,5.78
2017-06-25T04:35:53.540Z,5.32
2017-06-25T04:38:21.800Z,5.40
2017-06-25T04:40:50.099Z,5.50
2017-06-25T04:43:18.417Z,6.06
2017-06-25T04:45:46.697Z,6.56
2017-06-25T04:48:14.969Z,5.70
2017-06-25T04:50:43.281Z,5.96
2017-06-25T04:53:11.580Z,6.48
2017-06-25T04:55:39.842Z,6.20
2017-06-25T04:58:09.072Z,6.26
2017-06-25T05:00:37.333Z,6.96
2017-06-25T05:03:05.596Z,6.92
2017-06-25T05:05:33.897Z,6.16
2017-06-25T05:08:02.156Z,5.80
2017-06-25T05:10:30.412Z,6.38
2017-06-25T05:12:58.684Z,6.22
2017-06-25T05:15:26.968Z,6.84
2017-06-25T05:17:56.209Z,7.10
2017-06-25T05:20:24.469Z,6.46
2017-06-25T05:22:52.729Z,6.88
2017-06-25T05:25:21.026Z,6.68
2017-06-25T05:27:48.513Z,7.20
2017-06-25T05:30:16.764Z,6.08
2017-06-25T05:32:45.063Z,6.18
2017-06-25T05:35:13.325Z,5.90
2017-06-25T05:37:41.590Z,6.76
2017-06-25T05:40:09.885Z,6.78
2017-06-25T05:42:38.144Z,6.68
2017-06-25T05:45:06.407Z,7.04
2017-06-25T05:47:34.691Z,6.08
2017-06-25T05:50:02.968Z,6.62
2017-06-25T05:52:31.233Z,6.48
2017-06-25T05:54:59.518Z,6.24
2017-06-25T05:57:27.778Z,6.70
2017-06-25T05:59:56.996Z,6.28
2017-06-25T06:02:25.262Z,6.16
2017-06-25T06:04:52.779Z,5.62
2017-06-25T06:07:21.064Z,5.68
2017-06-25T06:09:49.315Z,6.50
2017-06-25T06:12:17.607Z,5.38
2017-06-25T06:14:45.866Z,7.74
2017-06-25T06:17:14.159Z,5.78
2017-06-25T06:19:42.416Z,6.84
2017-06-25T06:22:10.672Z,6.00
2017-06-25T06:24:38.957Z,6.36
2017-06-25T06:27:07.357Z,5.28
2017-06-25T06:29:35.614Z,5.20
2017-06-25T06:32:03.871Z,5.48
2017-06-25T06:34:32.161Z,5.66
2017-06-25T06:37:00.416Z,5.28
2017-06-25T06:39:28.706Z,5.96
2017-06-25T06:41:56.970Z,5.66
2017-06-25T06:44:24.467Z,6.20
2017-06-25T06:46:52.760Z,6.02
2017-06-25T06:49:21.068Z,5.82
2017-06-25T06:51:49.320Z,5.42
2017-06-25T06:54:17.819Z,5.42
2017-06-25T06:56:46.124Z,5.52
2017-06-25T06:59:14.394Z,6.14
2017-06-25T07:01:42.685Z,6.30
2017-06-25T07:04:10.942Z,6.00
2017-06-25T07:06:39.200Z,7.10
2017-06-25T07:09:07.480Z,6.98
2017-06-25T07:11:35.771Z,7.90
2017-06-25T07:14:04.059Z,6.46
2017-06-25T07:16:32.326Z,7.80
2017-06-25T07:19:00.615Z,7.58
2017-06-25T07:21:28.902Z,6.92
2017-06-25T07:23:57.180Z,7.80
2017-06-25T07:26:25.488Z,9.68
2017-06-25T07:28:53.826Z,8.92
2017-06-25T07:31:22.128Z,8.98
2017-06-25T07:33:50.396Z,8.14
2017-06-25T07:36:18.682Z,7.90
2017-06-25T07:38:46.952Z,8.90
2017-06-25T07:41:15.243Z,8.44
2017-06-25T07:43:42.777Z,9.78
2017-06-25T07:46:11.040Z,10.36
2017-06-25T07:48:39.311Z,11.20
2017-06-25T07:51:07.632Z,11.54
2017-06-25T07:53:35.897Z,11.48
2017-06-25T07:56:04.166Z,10.32
2017-06-25T07:58:32.457Z,10.50
2017-06-25T08:01:00.752Z,11.34
2017-06-25T08:03:29.021Z,10.70
2017-06-25T08:05:57.295Z,10.34
2017-06-25T08:08:25.591Z,9.60
2017-06-25T08:10:53.851Z,10.40
2017-06-25T08:13:22.132Z,10.18
2017-06-25T08:15:50.405Z,10.64
2017-06-25T08:18:18.688Z,13.86
2017-06-25T08:20:46.944Z,12.42
2017-06-25T08:23:15.247Z,11.18
2017-06-25T08:25:43.513Z,10.40
2017-06-25T08:28:11.783Z,10.64
2017-06-25T08:30:40.086Z,9.82
2017-06-25T08:33:08.347Z,9.78
2017-06-25T08:35:36.624Z,10.22
2017-06-25T08:38:04.908Z,10.36
2017-06-25T08:40:33.174Z,10.32
2017-06-25T08:43:01.465Z,11.20
2017-06-25T08:45:29.764Z,9.68
2017-06-25T08:47:58.036Z,10.70
2017-06-25T08:50:26.307Z,10.80
2017-06-25T08:52:54.618Z,11.40
2017-06-25T08:55:22.875Z,12.02
2017-06-25T08:57:51.135Z,11.22
2017-06-25T09:00:20.373Z,11.52
2017-06-25T09:02:48.634Z,10.88
2017-06-25T09:05:16.132Z,11.68
2017-06-25T09:07:44.417Z,12.78
2017-06-25T09:10:12.704Z,11.68
2017-06-25T09:12:40.970Z,12.22
2017-06-25T09:15:09.261Z,12.74
2017-06-25T09:17:37.546Z,13.20
2017-06-25T09:20:05.856Z,11.90
2017-06-25T09:22:34.126Z,12.18
2017-06-25T09:25:02.437Z,14.02
2017-06-25T09:27:30.696Z,13.72
2017-06-25T09:29:59.979Z,13.92
2017-06-25T09:32:28.236Z,14.36
2017-06-25T09:34:56.524Z,12.80
2017-06-25T09:37:24.791Z,14.52
2017-06-25T09:39:53.087Z,16.38
2017-06-25T09:42:21.371Z,11.62
2017-06-25T09:44:49.632Z,14.28
2017-06-25T09:47:17.148Z,11.96
2017-06-25T09:49:45.411Z,11.14
2017-06-25T09:52:13.706Z,14.28
2017-06-25T09:54:41.978Z,13.28
2017-06-25T09:57:09.489Z,11.42
2017-06-25T09:59:37.782Z,11.52
2017-06-25T10:02:06.044Z,11.38
2017-06-25T10:04:34.328Z,10.92
2017-06-25T10:07:02.595Z,12.28
2017-06-25T10:09:30.883Z,12.34
2017-06-25T10:11:59.147Z,11.48
2017-06-25T10:14:27.443Z,11.92
2017-06-25T10:16:55.715Z,11.16
2017-06-25T10:19:23.211Z,12.38
2017-06-25T10:21:51.517Z,11.74
2017-06-25T10:24:19.793Z,11.78
2017-06-25T10:26:48.060Z,12.78
2017-06-25T10:29:16.361Z,13.86
2017-06-25T10:31:44.661Z,13.52
2017-06-25T10:34:12.930Z,15.52
2017-06-25T10:36:41.203Z,14.52
2017-06-25T10:39:09.523Z,14.80
2017-06-25T10:41:37.812Z,14.90
2017-06-25T10:44:05.321Z,14.34
2017-06-25T10:46:33.612Z,13.94
2017-06-25T10:49:01.904Z,14.08
2017-06-25T10:51:30.180Z,14.00
2017-06-25T10:53:58.483Z,13.28
2017-06-25T10:56:26.752Z,12.42
2017-06-25T10:58:55.019Z,12.70
2017-06-25T11:01:23.329Z,12.82
2017-06-25T11:03:51.625Z,11.62
2017-06-25T11:06:19.912Z,13.26
2017-06-25T11:08:48.223Z,11.62
2017-06-25T11:11:16.517Z,12.06
2017-06-25T11:13:44.032Z,11.56
2017-06-25T11:16:12.343Z,12.58
2017-06-25T11:18:40.607Z,12.64
2017-06-25T11:21:08.895Z,11.02
2017-06-25T11:23:37.191Z,13.58
2017-06-25T11:26:05.492Z,11.80
2017-06-25T11:28:33.812Z,11.56
2017-06-25T11:31:02.107Z,10.46
2017-06-25T11:33:30.419Z,9.34
2017-06-25T11:35:58.718Z,9.52
2017-06-25T11:38:26.989Z,8.90
2017-06-25T11:40:55.291Z,9.16
2017-06-25T11:43:23.614Z,9.40
2017-06-25T11:45:51.930Z,9.48
2017-06-25T11:48:20.212Z,10.72
2017-06-25T11:50:48.487Z,10.58
2017-06-25T11:53:16.820Z,9.36
2017-06-25T11:55:45.093Z,10.54
2017-06-25T11:58:13.364Z,9.70
2017-06-25T12:00:41.659Z,10.20
2017-06-25T12:03:10.005Z,10.22
2017-06-25T12:05:38.315Z,11.02
2017-06-25T12:08:06.592Z,8.46
2017-06-25T12:10:34.108Z,8.22
2017-06-25T12:13:02.411Z,9.04
2017-06-25T12:15:30.720Z,8.70
2017-06-25T12:17:58.985Z,9.16
2017-06-25T12:20:27.259Z,8.82
2017-06-25T12:22:55.554Z,8.70
2017-06-25T12:25:23.818Z,8.94
2017-06-25T12:27:52.101Z,7.82
2017-06-25T12:30:20.419Z,8.86
2017-06-25T12:32:48.692Z,9.08
2017-06-25T12:35:16.960Z,12.18
2017-06-25T12:37:45.265Z,10.06
2017-06-25T12:40:13.552Z,10.90
2017-06-25T12:42:41.853Z,10.58
2017-06-25T12:45:10.153Z,10.18
2017-06-25T12:47:38.419Z,10.78
2017-06-25T12:50:06.713Z,10.58
2017-06-25T12:52:35.014Z,9.32
2017-06-25T12:55:03.287Z,8.62
2017-06-25T12:57:31.608Z,9.10
2017-06-25T12:59:59.880Z,8.82
2017-06-25T13:02:28.185Z,9.10
2017-06-25T13:04:56.487Z,9.44
2017-06-25T13:07:24.789Z,8.98
2017-06-25T13:09:53.092Z,9.98
2017-06-25T13:12:21.357Z,9.36
2017-06-25T13:14:49.655Z,9.08
2017-06-25T13:17:17.947Z,9.56
2017-06-25T13:19:46.243Z,9.72
2017-06-25T13:22:14.513Z,10.16
2017-06-25T13:24:42.787Z,9.50
2017-06-25T13:27:11.084Z,9.76
2017-06-25T13:29:39.356Z,10.08
2017-06-25T13:32:07.669Z,9.66
2017-06-25T13:34:35.928Z,9.32
2017-06-25T13:37:04.194Z,10.72
2017-06-25T13:39:32.501Z,10.42
2017-06-25T13:42:00.768Z,11.14
2017-06-25T13:44:29.050Z,12.34
2017-06-25T13:46:57.336Z,10.04
2017-06-25T13:49:25.600Z,11.76
2017-06-25T13:51:53.903Z,11.68
2017-06-25T13:54:22.173Z,10.90
2017-06-25T13:56:50.436Z,10.64
2017-06-25T13:59:18.732Z,10.82
2017-06-25T14:01:47.006Z,10.60
2017-06-25T14:04:15.299Z,12.14
2017-06-25T14:06:43.575Z,11.84
2017-06-25T14:09:11.867Z,10.84
2017-06-25T14:11:40.139Z,11.00
2017-06-25T14:14:08.655Z,10.76
2017-06-25T14:16:36.947Z,11.92
2017-06-25T14:19:05.223Z,11.04
2017-06-25T14:21:33.540Z,11.56
2017-06-25T14:24:01.820Z,10.96
2017-06-25T14:26:30.113Z,10.46
2017-06-25T14:28:58.412Z,10.20
2017-06-25T14:31:26.733Z,9.18
2017-06-25T14:33:54.996Z,10.16
2017-06-25T14:36:23.412Z,11.54
2017-06-25T14:38:51.703Z,10.10
2017-06-25T14:41:19.984Z,10.82
2017-06-25T14:43:48.281Z,10.16
2017-06-25T14:46:16.543Z,10.62
2017-06-25T14:48:44.833Z,9.74
2017-06-25T14:51:13.114Z,9.12
2017-06-25T14:53:41.367Z,9.42
2017-06-25T14:56:09.691Z,9.46
2017-06-25T14:58:37.191Z,9.44
2017-06-25T15:01:05.449Z,9.40
2017-06-25T15:03:33.734Z,9.36
2017-06-25T15:06:01.237Z,9.08
2017-06-25T15:08:29.519Z,7.64
2017-06-25T15:10:57.779Z,8.06
2017-06-25T15:13:26.080Z,7.80
2017-06-25T15:15:54.327Z,6.50
2017-06-25T15:18:22.592Z,6.36
2017-06-25T15:20:50.879Z,5.76
2017-06-25T15:23:19.141Z,6.56
2017-06-25T15:25:47.468Z,6.44
2017-06-25T15:28:15.739Z,6.22
2017-06-25T15:30:44.028Z,6.06
2017-06-25T15:33:12.307Z,7.02
2017-06-25T15:35:39.852Z,6.04
2017-06-25T15:38:08.116Z,6.06
2017-06-25T15:40:36.368Z,6.86
2017-06-25T15:43:04.655Z,6.24
2017-06-25T15:45:32.934Z,6.46
2017-06-25T15:48:01.199Z,6.22
2017-06-25T15:50:29.483Z,6.48
2017-06-25T15:52:57.752Z,6.20
2017-06-25T15:55:26.040Z,5.90
2017-06-25T15:57:54.315Z,6.40
2017-06-25T16:00:22.644Z,6.08
2017-06-25T16:02:50.903Z,6.54
2017-06-25T16:05:19.160Z,5.86
2017-06-25T16:07:47.446Z,5.54
2017-06-25T16:10:15.714Z,6.70
2017-06-25T16:12:44.003Z,5.32
2017-06-25T16:15:12.265Z,5.28
2017-06-25T16:17:40.555Z,5.82
2017-06-25T16:20:08.820Z,5.10
2017-06-25T16:22:37.112Z,5.58
2017-06-25T16:25:05.391Z,5.78
2017-06-25T16:27:33.655Z,5.74
2017-06-25T16:30:01.212Z,6.66
2017-06-25T16:32:29.483Z,5.12
2017-06-25T16:34:57.740Z,5.02
2017-06-25T16:37:26.023Z,5.52
2017-06-25T16:39:56.240Z,5.70
2017-06-25T16:42:24.535Z,5.38
2017-06-25T16:44:52.825Z,5.50
2017-06-25T16:47:21.117Z,5.38
2017-06-25T16:49:49.367Z,5.82
2017-06-25T16:52:17.659Z,5.76
2017-06-25T16:54:45.163Z,4.48
2017-06-25T16:57:12.648Z,4.74
2017-06-25T16:59:40.928Z,4.08
2017-06-25T17:02:09.188Z,3.88
2017-06-25T17:04:36.713Z,4.84
2017-06-25T17:07:04.978Z,3.42
2017-06-25T17:09:33.285Z,4.18
2017-06-25T17:12:01.544Z,4.40
2017-06-25T17:14:29.824Z,4.36
2017-06-25T17:16:58.079Z,3.92
2017-06-25T17:19:26.372Z,4.10
2017-06-25T17:21:54.628Z,5.92
2017-06-25T17:24:22.150Z,5.64
2017-06-25T17:26:49.651Z,4.48
2017-06-25T17:29:17.933Z,4.20
2017-06-25T17:31:46.228Z,4.60
2017-06-25T17:34:14.511Z,4.60
2017-06-25T17:36:42.806Z,3.90
2017-06-25T17:39:11.067Z,3.82
2017-06-25T17:41:39.361Z,4.02
2017-06-25T17:44:07.631Z,4.20
2017-06-25T17:46:35.920Z,3.90
2017-06-25T17:49:03.440Z,3.54
2017-06-25T17:51:31.702Z,3.40
2017-06-25T17:53:59.988Z,3.90
2017-06-25T17:56:28.259Z,3.46
2017-06-25T17:58:56.555Z,4.00
2017-06-25T18:01:24.817Z,4.24
2017-06-25T18:03:52.340Z,3.70
2017-06-25T18:06:20.603Z,3.46
2017-06-25T18:08:48.895Z,3.50
2017-06-25T18:11:17.169Z,5.62
2017-06-25T18:13:45.450Z,3.50
2017-06-25T18:16:13.753Z,3.32
2017-06-25T18:18:42.019Z,3.52
2017-06-25T18:21:10.276Z,3.18
2017-06-25T18:23:38.555Z,3.20
2017-06-25T18:26:06.850Z,4.06
2017-06-25T18:28:35.103Z,5.80
2017-06-25T18:31:03.386Z,7.50
2017-06-25T18:33:31.646Z,7.28
2017-06-25T18:35:59.143Z,8.82
2017-06-25T18:38:27.437Z,10.52
2017-06-25T18:40:55.702Z,12.44
2017-06-25T18:43:24.009Z,10.54
2017-06-25T18:45:52.284Z,11.62
2017-06-25T18:48:20.562Z,10.16
2017-06-25T18:50:48.842Z,8.62
2017-06-25T18:53:17.131Z,11.48
2017-06-25T18:55:45.396Z,11.12
2017-06-25T18:58:13.671Z,10.42
2017-06-25T19:00:41.977Z,11.82
2017-06-25T19:03:10.239Z,10.54
2017-06-25T19:05:37.770Z,10.46
2017-06-25T19:08:06.091Z,11.56
2017-06-25T19:10:34.354Z,11.52
2017-06-25T19:13:02.620Z,10.86
2017-06-25T19:15:30.910Z,11.26
2017-06-25T19:17:59.180Z,10.90
2017-06-25T19:20:27.467Z,11.20
2017-06-25T19:22:55.735Z,11.08
2017-06-25T19:25:24.027Z,10.36
2017-06-25T19:27:52.303Z,9.72
2017-06-25T19:30:20.608Z,11.36
2017-06-25T19:32:48.901Z,11.38
2017-06-25T19:35:17.187Z,11.50
2017-06-25T19:37:45.447Z,11.92
2017-06-25T19:40:13.736Z,11.32
2017-06-25T19:42:42.943Z,12.68
2017-06-25T19:45:11.280Z,10.56
2017-06-25T19:47:39.547Z,11.30
2017-06-25T19:50:07.814Z,10.68
2017-06-25T19:52:36.133Z,11.64
2017-06-25T19:55:04.401Z,11.96
2017-06-25T19:57:32.666Z,10.74
2017-06-25T20:00:00.954Z,9.54
2017-06-25T20:02:29.216Z,9.68
2017-06-25T20:04:57.506Z,8.50
2017-06-25T20:07:25.763Z,8.88
2017-06-25T20:09:54.067Z,8.48
2017-06-25T20:12:22.335Z,9.22
2017-06-25T20:14:50.605Z,8.64
2017-06-25T20:17:18.893Z,7.88
2017-06-25T20:19:47.183Z,8.70
2017-06-25T20:22:15.504Z,8.80
2017-06-25T20:24:43.806Z,7.60
2017-06-25T20:27:12.089Z,8.40
2017-06-25T20:29:40.354Z,7.08
2017-06-25T20:32:08.637Z,7.88
2017-06-25T20:34:36.893Z,8.08
2017-06-25T20:37:05.189Z,6.52
2017-06-25T20:39:33.456Z,7.30
2017-06-25T20:42:01.736Z,7.28
2017-06-25T20:44:30.033Z,7.34
2017-06-25T20:46:58.295Z,7.90
2017-06-25T20:49:26.544Z,7.92
2017-06-25T20:51:54.838Z,8.18
2017-06-25T20:54:23.147Z,7.68
2017-06-25T20:56:51.404Z,8.70
2017-06-25T20:59:19.659Z,8.48
2017-06-25T21:01:47.969Z,8.32
2017-06-25T21:04:16.237Z,7.44
2017-06-25T21:06:44.495Z,7.74
2017-06-25T21:09:12.785Z,5.76
2017-06-25T21:11:41.075Z,5.70
2017-06-25T21:14:08.572Z,4.78
2017-06-25T21:16:36.870Z,5.04
2017-06-25T21:19:05.139Z,4.16
2017-06-25T21:21:33.444Z,3.88
2017-06-25T21:24:01.707Z,4.14
2017-06-25T21:26:29.232Z,3.44
2017-06-25T21:28:57.514Z,3.58
2017-06-25T21:31:25.771Z,3.64
2017-06-25T21:33:54.076Z,4.10
2017-06-25T21:36:22.363Z,3.02
2017-06-25T21:38:50.626Z,3.12
2017-06-25T21:41:18.919Z,3.56
2017-06-25T21:43:47.174Z,3.78
2017-06-25T21:46:15.456Z,3.00
2017-06-25T21:48:43.720Z,2.94
2017-06-25T21:51:12.003Z,2.98
2017-06-25T21:53:40.262Z,3.42
2017-06-25T21:56:08.559Z,3.18
2017-06-25T21:58:36.823Z,3.10
2017-06-25T22:01:05.076Z,3.00
2017-06-25T22:03:33.364Z,3.22
2017-06-25T22:06:01.630Z,3.14
2017-06-25T22:08:29.916Z,3.20
2017-06-25T22:10:58.173Z,3.10
2017-06-25T22:13:26.472Z,2.60
2017-06-25T22:15:54.740Z,2.86
2017-06-25T22:18:22.991Z,3.20
2017-06-25T22:20:51.263Z,3.10
2017-06-25T22:23:19.520Z,3.10
2017-06-25T22:25:47.792Z,2.86
2017-06-25T22:28:16.047Z,2.74
2017-06-25T22:30:43.557Z,2.94
2017-06-25T22:33:11.812Z,2.90
2017-06-25T22:35:39.329Z,2.48
2017-06-25T22:38:06.829Z,3.26
2017-06-25T22:40:35.112Z,3.60
2017-06-25T22:43:03.400Z,3.16
2017-06-25T22:45:31.680Z,3.10
2017-06-25T22:47:59.954Z,2.72
2017-06-25T22:50:28.205Z,3.32
2017-06-25T22:52:56.512Z,3.60
2017-06-25T22:55:24.772Z,2.94
2017-06-25T22:57:53.024Z,2.64
2017-06-25T23:00:21.321Z,3.20
2017-06-25T23:02:49.589Z,2.88
2017-06-25T23:05:17.847Z,2.90
2017-06-25T23:07:46.120Z,3.54
2017-06-25T23:10:14.415Z,3.46
2017-06-25T23:12:42.671Z,3.04
2017-06-25T23:15:10.925Z,3.50
2017-06-25T23:17:39.204Z,2.92
2017-06-25T23:20:07.463Z,3.76
2017-06-25T23:22:35.735Z,2.52
2017-06-25T23:25:03.989Z,3.02
2017-06-25T23:27:32.279Z,3.16
2017-06-25T23:30:02.524Z,2.88
2017-06-25T23:32:30.821Z,3.30
2017-06-25T23:34:59.084Z,2.70
2017-06-25T23:37:27.362Z,3.24
2017-06-25T23:39:56.575Z,3.00
2017-06-25T23:42:24.827Z,2.80
2017-06-25T23:44:53.107Z,3.08
2017-06-25T23:47:21.359Z,3.16
2017-06-25T23:49:49.610Z,3.38
2017-06-25T23:52:17.893Z,3.34
2017-06-25T23:54:46.172Z,3.40
2017-06-25T23:57:14.424Z,3.28
2017-06-25T23:59:42.707Z,3.04
